GW3570 Weather Reports


Display with metric or nautical units.
time (UTC)temp
F
wind
direction
speed
MPH
gust
MPH
rain 1hr
in
rain 24hr
in
rain mn
in
humidity
%
barometer
mb
20240612154715 81 206 4.0 5.0 0.00 0.00 0.00 56 1016.9
20240612154215 82 229 2.0 2.0 0.00 0.00 0.00 62 1017.0
20240612153713 82 198 5.0 5.0 0.00 0.00 0.00 60 1016.8
20240612153211 81 168 2.0 2.0 0.00 0.00 0.00 63 1017.0
20240612152710 82 158 3.0 3.0 0.00 0.00 0.00 64 1017.1
20240612152209 82 202 2.0 2.0 0.00 0.00 0.00 62 1017.1
20240612151707 82 199 0.0 0.0 0.00 0.00 0.00 60 1017.0
20240612151207 82 154 1.0 1.0 0.00 0.00 0.00 56 1017.1
20240612150705 82 179 0.0 1.0 0.00 0.00 0.00 63 1017.3
20240612150205 81 123 1.0 1.0 0.00 0.00 0.00 65 1017.2
20240612145703 82 122 0.0 0.0 0.00 0.00 0.00 60 1017.3
20240612145201 80 122 0.0 1.0 0.00 0.00 0.00 62 1017.3
20240612144659 80 123 1.0 1.0 0.00 0.00 0.00 62 1017.2
20240612144157 81 122 0.0 1.0 0.00 0.00 0.00 61 1017.2
20240612143656 81 122 0.0 0.0 0.00 0.00 0.00 61 1017.5
20240612143155 81 122 0.0 0.0 0.00 0.00 0.00 63 1017.4
20240612142653 80 119 0.0 0.0 0.00 0.00 0.00 65 1017.3
20240612142152 79 121 0.0 0.0 0.00 0.00 0.00 66 1017.4
20240612141650 79 121 0.0 0.0 0.00 0.00 0.00 68 1017.4
20240612141148 78 121 0.0 0.0 0.00 0.00 0.00 66 1017.6
20240612140647 78 121 0.0 0.0 0.00 0.00 0.00 69 1017.4
20240612140144 78 121 0.0 0.0 0.00 0.00 0.00 66 1017.5
20240612135642 77 121 0.0 0.0 0.00 0.00 0.00 66 1017.4
20240612135140 78 121 0.0 0.0 0.00 0.00 0.00 68 1017.4
20240612134639 76 120 0.0 0.0 0.00 0.00 0.00 71 1017.6
20240612134137 75 120 0.0 0.0 0.00 0.00 0.00 71 1017.5
20240612133635 75 114 0.0 0.0 0.00 0.00 0.00 74 1017.5
20240612133134 73 114 0.0 0.0 0.00 0.00 0.00 76 1017.6
20240612132633 72 114 0.0 0.0 0.00 0.00 0.00 85 1017.6
20240612132131 71 114 0.0 0.0 0.00 0.00 0.00 85 1017.5
20240612131629 68 113 0.0 0.0 0.00 0.00 0.00 92 1017.6
20240612131128 68 113 0.0 0.0 0.00 0.00 0.00 94 1017.5
20240612130627 67 107 0.0 0.0 0.00 0.00 0.00 95 1017.4
20240612130127 66 107 0.0 0.0 0.00 0.00 0.00 95 1017.6
20240612125624 66 107 0.0 0.0 0.00 0.00 0.00 96 1017.5
20240612125123 66 107 0.0 0.0 0.00 0.00 0.00 97 1017.7
20240612124622 65 107 0.0 0.0 0.00 0.00 0.00 97 1017.3
20240612124121 65 107 0.0 0.0 0.00 0.00 0.00 97 1017.5
20240612123619 65 107 0.0 0.0 0.00 0.00 0.00 97 1017.3
20240612123119 65 107 0.0 0.0 0.00 0.00 0.00 97 1017.4
20240612122615 64 107 0.0 0.0 0.00 0.00 0.00 98 1017.3
20240612122114 64 107 0.0 0.0 0.00 0.00 0.00 98 1017.3
20240612121613 64 107 0.0 0.0 0.00 0.00 0.00 98 1017.2
20240612121112 64 107 0.0 0.0 0.00 0.00 0.00 98 1017.0
20240612120610 64 107 0.0 0.0 0.00 0.00 0.00 98 1017.1
20240612120109 64 107 0.0 0.0 0.00 0.00 0.00 98 1017.0
20240612115606 63 107 0.0 0.0 0.00 0.00 0.00 98 1017.2
20240612115104 63 107 0.0 0.0 0.00 0.00 0.00 98 1017.0
20240612114604 63 107 0.0 0.0 0.00 0.00 0.00 98 1017.1
20240612114102 63 107 0.0 0.0 0.00 0.00 0.00 98 1017.0
20240612113559 63 107 0.0 0.0 0.00 0.00 0.00 98 1017.0
20240612113058 63 107 0.0 0.0 0.00 0.00 0.00 98 1017.0
20240612112558 63 107 0.0 0.0 0.00 0.00 0.00 98 1016.9
20240612112057 63 107 0.0 0.0 0.00 0.00 0.00 98 1016.9
20240612111556 63 107 0.0 0.0 0.00 0.00 0.00 98 1016.9
20240612111055 63 107 0.0 0.0 0.00 0.00 0.00 98 1016.8
20240612110556 63 107 0.0 0.0 0.00 0.00 0.00 98 1016.6
20240612110055 63 107 0.0 0.0 0.00 0.00 0.00 98 1016.8
20240612105554 63 107 0.0 1.0 0.00 0.00 0.00 98 1016.5
20240612105053 63 108 1.0 1.0 0.00 0.00 0.00 98 1016.5
20240612104551 63 113 0.0 0.0 0.00 0.00 0.00 98 1016.4
20240612104049 63 121 0.0 0.0 0.00 0.00 0.00 98 1016.4
20240612103547 63 135 0.0 0.0 0.00 0.00 0.00 98 1016.4
20240612103046 63 334 0.0 0.0 0.00 0.00 0.00 97 1016.6
20240612102546 63 334 0.0 0.0 0.00 0.00 0.00 97 1016.4
20240612102045 63 124 0.0 0.0 0.00 0.00 0.00 97 1016.5
20240612101544 63 100 0.0 0.0 0.00 0.00 0.00 97 1016.3
20240612101043 63 100 0.0 0.0 0.00 0.00 0.00 97 1016.3
20240612100543 64 100 0.0 0.0 0.00 0.00 0.00 97 1016.5
20240612100041 64 100 0.0 0.0 0.00 0.00 0.00 97 1016.2
20240612095540 64 100 0.0 0.0 0.00 0.00 0.00 97 1016.2
20240612095039 64 100 0.0 0.0 0.00 0.00 0.00 97 1016.3
20240612094538 64 100 0.0 0.0 0.00 0.00 0.00 97 1016.2
20240612094036 64 100 0.0 0.0 0.00 0.00 0.00 97 1016.1
20240612093534 64 100 0.0 0.0 0.00 0.00 0.00 97 1016.1
20240612093034 64 100 0.0 0.0 0.00 0.00 0.00 97 1016.0
20240612092532 64 100 0.0 0.0 0.00 0.00 0.00 97 1015.9
20240612092031 64 100 0.0 0.0 0.00 0.00 0.00 97 1016.2
20240612091530 64 100 0.0 0.0 0.00 0.00 0.00 97 1016.1
20240612091028 64 100 0.0 0.0 0.00 0.00 0.00 97 1016.2
20240612090526 64 100 0.0 0.0 0.00 0.00 0.00 97 1016.3
20240612090024 64 100 0.0 0.0 0.00 0.00 0.00 97 1016.2
20240612085521 64 100 0.0 0.0 0.00 0.00 0.00 97 1016.0
20240612085021 64 100 0.0 0.0 0.00 0.00 0.00 97 1015.9
20240612084519 64 100 0.0 0.0 0.00 0.00 0.00 97 1015.9
20240612084017 65 99 0.0 0.0 0.00 0.00 0.00 97 1015.9
20240612083517 65 100 0.0 0.0 0.00 0.00 0.00 97 1015.9
20240612083016 65 99 0.0 0.0 0.00 0.00 0.00 97 1016.0
20240612082516 65 100 0.0 0.0 0.00 0.00 0.00 97 1016.0
20240612082014 65 100 0.0 0.0 0.00 0.00 0.00 97 1016.0
20240612081514 65 100 0.0 0.0 0.00 0.00 0.00 97 1016.0
20240612081013 65 100 0.0 0.0 0.00 0.00 0.00 97 1015.9
20240612080513 65 100 0.0 0.0 0.00 0.00 0.00 97 1016.0
20240612080012 65 100 0.0 0.0 0.00 0.00 0.00 97 1015.8
20240612075507 66 100 0.0 0.0 0.00 0.00 0.00 97 1015.9
20240612075005 65 100 0.0 0.0 0.00 0.00 0.00 97 1015.8
20240612074505 66 100 0.0 0.0 0.00 0.00 0.00 97 1015.9
20240612074004 66 100 0.0 0.0 0.00 0.00 0.00 97 1015.9
20240612073502 66 101 0.0 0.0 0.00 0.00 0.00 97 1015.9
20240612073000 66 100 0.0 0.0 0.00 0.00 0.00 97 1015.9
20240612072500 66 100 0.0 0.0 0.00 0.00 0.00 97 1016.0
20240612071959 66 100 0.0 0.0 0.00 0.00 0.00 97 1016.1
20240612071457 66 101 0.0 0.0 0.00 0.00 0.00 97 1016.1
20240612070957 66 100 0.0 0.0 0.00 0.00 0.00 97 1016.1
20240612070456 66 100 0.0 0.0 0.00 0.00 0.00 96 1016.1
20240612065955 66 101 0.0 0.0 0.00 0.00 0.00 97 1016.2
20240612065455 66 101 0.0 0.0 0.00 0.00 0.00 96 1016.2
20240612064953 66 100 0.0 0.0 0.00 0.00 0.00 96 1016.0
20240612064452 67 101 0.0 0.0 0.00 0.00 0.00 96 1016.0
20240612063950 67 101 0.0 0.0 0.00 0.00 0.00 96 1016.1
20240612063448 67 83 0.0 0.0 0.00 0.00 0.00 96 1016.2
20240612062947 67 83 0.0 0.0 0.00 0.00 0.00 96 1016.1
20240612062445 67 83 0.0 0.0 0.00 0.00 0.00 96 1016.1
20240612061943 66 83 0.0 0.0 0.00 0.00 0.00 96 1016.1
20240612061441 67 83 0.0 0.0 0.00 0.00 0.00 96 1016.2
20240612060939 67 83 0.0 0.0 0.00 0.00 0.00 96 1015.9
20240612060438 67 83 0.0 0.0 0.00 0.00 0.00 96 1016.2
20240612055936 67 87 0.0 0.0 0.00 0.00 0.00 96 1016.1
20240612055434 67 87 0.0 0.0 0.00 0.00 0.00 96 1016.3
20240612054933 67 87 0.0 0.0 0.00 0.00 0.00 96 1016.3
20240612054432 68 88 0.0 0.0 0.00 0.00 0.00 95 1016.1
20240612053932 67 87 0.0 0.0 0.00 0.00 0.00 95 1016.4
20240612053430 67 87 0.0 0.0 0.00 0.00 0.00 95 1016.2
20240612052928 68 87 0.0 0.0 0.00 0.00 0.00 95 1016.2
20240612052426 68 87 0.0 0.0 0.00 0.00 0.00 95 1016.0
20240612051926 68 87 0.0 0.0 0.00 0.00 0.00 95 1016.2
20240612051425 68 87 0.0 0.0 0.00 0.00 0.00 95 1016.1
20240612050924 68 87 0.0 0.0 0.00 0.00 0.00 95 1015.9
20240612050423 68 87 0.0 0.0 0.00 0.00 0.00 94 1016.0
20240612045920 68 87 0.0 0.0 0.00 0.00 0.00 94 1016.0
20240612045418 68 87 0.0 0.0 0.00 0.00 0.00 94 1016.2
20240612044918 68 87 0.0 0.0 0.00 0.00 0.00 94 1016.0
20240612044416 68 87 0.0 0.0 0.00 0.00 0.00 94 1015.8
20240612043914 68 87 0.0 0.0 0.00 0.00 0.00 94 1016.2
20240612043412 69 84 0.0 0.0 0.00 0.00 0.00 94 1016.1
20240612042911 68 84 0.0 0.0 0.00 0.00 0.00 94 1016.3
20240612042410 68 84 0.0 0.0 0.00 0.00 0.00 93 1016.2
20240612041908 69 84 0.0 0.0 0.00 0.00 0.00 93 1016.1
20240612041404 69 85 0.0 0.0 0.00 0.00 0.00 93 1016.2
20240612040903 69 85 0.0 0.0 0.00 0.00 0.00 92 1015.8
20240612040402 69 84 0.0 0.0 0.00 0.00 0.00 92 1015.9
20240612035901 69 84 0.0 0.0 0.00 0.00 0.00 93 1016.0
20240612035359 69 84 0.0 0.0 0.00 0.00 0.00 92 1016.0
20240612034859 69 84 0.0 0.0 0.00 0.00 0.00 92 1015.8
20240612034359 69 84 0.0 0.0 0.00 0.00 0.00 92 1015.6
20240612033857 69 84 0.0 0.0 0.00 0.00 0.00 91 1015.9
20240612033357 69 84 0.0 0.0 0.00 0.00 0.00 91 1015.6
20240612032857 70 86 0.0 0.0 0.00 0.00 0.00 91 1015.5
20240612032356 70 100 0.0 0.0 0.00 0.00 0.00 90 1015.5
20240612031856 70 100 0.0 0.0 0.00 0.00 0.00 90 1015.8
20240612031354 70 101 0.0 0.0 0.00 0.00 0.00 89 1015.6
20240612030853 70 101 0.0 0.0 0.00 0.00 0.00 89 1015.6
20240612030353 70 101 0.0 0.0 0.00 0.00 0.00 88 1015.3
20240612025851 70 100 0.0 0.0 0.00 0.00 0.00 88 1015.1
20240612025350 70 100 0.0 0.0 0.00 0.00 0.00 88 1015.2
20240612024848 70 100 0.0 0.0 0.00 0.00 0.00 87 1015.0
20240612024347 70 100 0.0 0.0 0.00 0.00 0.00 87 1015.1
20240612023845 71 100 0.0 0.0 0.00 0.00 0.00 86 1015.0
20240612023345 71 99 0.0 0.0 0.00 0.00 0.00 86 1014.9
20240612022844 71 106 0.0 0.0 0.00 0.00 0.00 85 1014.8
20240612022342 71 107 0.0 0.0 0.00 0.00 0.00 84 1014.7
20240612021842 72 107 0.0 0.0 0.00 0.00 0.00 84 1014.6
20240612021340 71 107 0.0 0.0 0.00 0.00 0.00 83 1014.8
20240612020838 72 107 0.0 0.0 0.00 0.00 0.00 82 1014.7
20240612020336 72 108 0.0 0.0 0.00 0.00 0.00 82 1014.8
20240612015835 73 107 0.0 0.0 0.00 0.00 0.00 81 1014.6
20240612015333 73 108 0.0 0.0 0.00 0.00 0.00 79 1014.8
20240612014833 73 108 0.0 0.0 0.00 0.00 0.00 78 1014.6
20240612014331 73 108 0.0 0.0 0.00 0.00 0.00 77 1014.6
20240612013829 74 108 0.0 0.0 0.00 0.00 0.00 77 1014.8
20240612013328 74 108 0.0 0.0 0.00 0.00 0.00 78 1014.4
20240612012827 74 119 0.0 0.0 0.00 0.00 0.00 76 1014.6
20240612012326 74 122 0.0 0.0 0.00 0.00 0.00 76 1014.9
20240612011824 75 140 0.0 0.0 0.00 0.00 0.00 74 1014.6
20240612011321 75 140 0.0 0.0 0.00 0.00 0.00 74 1014.8
20240612010819 75 140 0.0 0.0 0.00 0.00 0.00 75 1014.7
20240612010317 76 148 0.0 0.0 0.00 0.00 0.00 74 1014.8
20240612005815 75 159 0.0 0.0 0.00 0.00 0.00 74 1014.8
20240612005313 75 33 1.0 1.0 0.00 0.00 0.00 76 1014.7
20240612004813 76 26 1.0 1.0 0.00 0.00 0.00 75 1014.9
20240612004311 77 5 1.0 1.0 0.00 0.00 0.00 73 1014.7
20240612003810 77 326 1.0 1.0 0.00 0.00 0.00 74 1014.8
20240612003309 78 318 1.0 1.0 0.00 0.00 0.00 71 1014.5
20240612002808 78 290 0.0 1.0 0.00 0.00 0.00 71 1014.7
20240612002306 79 269 0.0 0.0 0.00 0.00 0.00 70 1014.7
20240612001804 80 243 0.0 0.0 0.00 0.00 0.00 68 1014.9
20240612001303 81 246 0.0 0.0 0.00 0.00 0.00 68 1014.9
20240612000802 84 169 0.0 0.0 0.00 0.00 0.00 64 1014.9
20240612000230 84 178 0.0 0.0 0.00 0.00 0.00 60 1014.8
20240611235728 83 177 0.0 0.0 0.00 0.00 0.00 56 1014.8
20240611235226 83 181 0.0 0.0 0.00 0.00 0.00 54 1014.8
20240611234726 84 182 0.0 0.0 0.00 0.00 0.00 55 1014.8
20240611234225 83 182 0.0 0.0 0.00 0.00 0.00 59 1015.0
20240611233725 84 182 0.0 0.0 0.00 0.00 0.00 55 1014.9
20240611233224 84 182 0.0 0.0 0.00 0.00 0.00 52 1014.7
20240611232723 84 182 0.0 1.0 0.00 0.00 0.00 50 1014.7
20240611232222 85 196 0.0 1.0 0.00 0.00 0.00 48 1014.8
20240611231721 84 195 0.0 0.0 0.00 0.00 0.00 48 1014.7
20240611231219 84 10 0.0 0.0 0.00 0.00 0.00 48 1014.9
20240611230719 83 187 0.0 1.0 0.00 0.00 0.00 47 1014.8
20240611230219 83 196 0.0 0.0 0.00 0.00 0.00 49 1015.1
20240611225717 84 181 3.0 3.0 0.00 0.00 0.00 51 1015.0
20240611225217 84 183 0.0 0.0 0.00 0.00 0.00 46 1015.0
20240611224715 83 186 0.0 0.0 0.00 0.00 0.00 49 1015.2
20240611224214 84 206 0.0 0.0 0.00 0.00 0.00 52 1015.1
20240611223713 84 213 2.0 2.0 0.00 0.00 0.00 50 1015.2
20240611223147 83 197 1.0 1.0 0.00 0.00 0.00 48 1015.3
20240611222643 84 196 2.0 2.0 0.00 0.00 0.00 50 1015.3
20240611222142 82 171 1.0 1.0 0.00 0.00 0.00 49 1015.7
20240611221642 83 211 1.0 2.0 0.00 0.00 0.00 55 1015.3
20240611221141 84 199 1.0 1.0 0.00 0.00 0.00 48 1015.6
20240611220640 85 172 0.0 0.0 0.00 0.00 0.00 57 1015.5
20240611220140 84 202 0.0 1.0 0.00 0.00 0.00 50 1015.7
20240611215639 83 192 0.0 1.0 0.00 0.00 0.00 49 1015.5
20240611215139 84 174 2.0 2.0 0.00 0.00 0.00 53 1015.6
20240611214638 84 216 1.0 1.0 0.00 0.00 0.00 48 1015.6
20240611214138 83 189 2.0 2.0 0.00 0.00 0.00 52 1015.6
20240611213636 84 224 0.0 2.0 0.00 0.00 0.00 52 1015.7
20240611213136 83 213 2.0 2.0 0.00 0.00 0.00 55 1015.9
20240611212633 85 220 3.0 3.0 0.00 0.00 0.00 52 1015.8
20240611212131 83 221 0.0 0.0 0.00 0.00 0.00 48 1015.8
20240611211632 83 190 3.0 3.0 0.00 0.00 0.00 51 1016.1
20240611211129 83 214 0.0 1.0 0.00 0.00 0.00 53 1015.9
20240611210628 84 247 3.0 3.0 0.00 0.00 0.00 51 1015.9
20240611210126 83 213 0.0 0.0 0.00 0.00 0.00 47 1016.1
20240611205624 82 234 0.0 1.0 0.00 0.00 0.00 54 1016.2
20240611205123 82 223 2.0 2.0 0.00 0.00 0.00 58 1016.0
20240611204622 84 195 2.0 2.0 0.00 0.00 0.00 49 1016.1
20240611204121 82 194 3.0 3.0 0.00 0.00 0.00 52 1016.0
20240611203619 84 309 4.0 5.0 0.00 0.00 0.00 46 1016.1
20240611203118 84 209 2.0 2.0 0.00 0.00 0.00 52 1016.2
20240611202616 84 211 0.0 0.0 0.00 0.00 0.00 46 1016.3
20240611202115 83 207 1.0 2.0 0.00 0.00 0.00 48 1016.5
20240611201613 83 218 2.0 2.0 0.00 0.00 0.00 53 1016.6
20240611201111 82 179 1.0 1.0 0.00 0.00 0.00 52 1016.5
20240611200610 83 245 1.0 1.0 0.00 0.00 0.00 50 1016.4
20240611200107 82 244 0.0 0.0 0.00 0.00 0.00 50 1016.4
20240611195606 81 270 2.0 2.0 0.00 0.00 0.00 53 1016.3
20240611195106 81 239 0.0 1.0 0.00 0.00 0.00 54 1016.5
20240611194605 82 197 1.0 1.0 0.00 0.00 0.00 56 1016.2
20240611194104 83 214 0.0 0.0 0.00 0.00 0.00 50 1016.4
20240611193603 82 243 1.0 1.0 0.00 0.00 0.00 50 1016.3
20240611193102 82 200 2.0 2.0 0.00 0.00 0.00 50 1016.4
20240611192602 81 236 2.0 2.0 0.00 0.00 0.00 57 1016.6
20240611192100 81 247 1.0 1.0 0.00 0.00 0.00 53 1016.4
20240611191559 81 233 3.0 3.0 0.00 0.00 0.00 55 1016.5
20240611191056 80 309 2.0 2.0 0.00 0.00 0.00 49 1016.6
20240611190555 81 74 2.0 2.0 0.00 0.00 0.00 49 1016.7
20240611190053 81 164 1.0 2.0 0.00 0.00 0.00 49 1016.7
20240611185553 81 163 1.0 2.0 0.00 0.00 0.00 52 1016.5
20240611185050 81 193 3.0 3.0 0.00 0.00 0.00 57 1016.5
20240611184549 82 208 1.0 1.0 0.00 0.00 0.00 52 1016.7
20240611184038 80 190 1.0 1.0 0.00 0.00 0.00 51 1016.7
20240611183536 80 247 2.0 2.0 0.00 0.00 0.00 54 1016.6
20240611183035 81 220 1.0 1.0 0.00 0.00 0.00 51 1016.7
20240611182533 81 180 3.0 3.0 0.00 0.00 0.00 56 1016.6
20240611182033 81 184 1.0 2.0 0.00 0.00 0.00 57 1017.0
20240611181532 80 210 1.0 1.0 0.00 0.00 0.00 57 1016.9
20240611181031 80 211 1.0 1.0 0.00 0.00 0.00 57 1016.9
20240611180531 80 170 3.0 3.0 0.00 0.00 0.00 60 1017.1
20240611180029 80 187 2.0 2.0 0.00 0.00 0.00 57 1016.9
20240611175525 80 199 2.0 2.0 0.00 0.00 0.00 56 1017.0
20240611175023 80 193 1.0 1.0 0.00 0.00 0.00 56 1017.1
20240611174521 80 240 2.0 3.0 0.00 0.00 0.00 57 1017.2
20240611174018 79 149 2.0 2.0 0.00 0.00 0.00 57 1017.1
20240611173427 80 178 3.0 5.0 0.00 0.00 0.00 59 1017.1
20240611172925 80 177 1.0 2.0 0.00 0.00 0.00 57 1017.3
20240611172425 79 186 2.0 2.0 0.00 0.00 0.00 55 1017.3
20240611171924 78 182 1.0 2.0 0.00 0.00 0.00 62 1017.2
20240611171423 80 187 2.0 2.0 0.00 0.00 0.00 56 1017.2
20240611170922 79 190 1.0 1.0 0.00 0.00 0.00 64 1017.3
20240611170420 78 193 2.0 2.0 0.00 0.00 0.00 58 1017.1
20240611165918 79 184 2.0 2.0 0.00 0.00 0.00 62 1017.3
20240611165417 78 202 2.0 2.0 0.00 0.00 0.00 61 1016.9
20240611164916 78 218 1.0 1.0 0.00 0.00 0.00 54 1017.1
20240611164415 77 149 3.0 3.0 0.00 0.00 0.00 64 1017.2
20240611163913 77 164 4.0 5.0 0.00 0.00 0.00 63 1017.2
20240611163413 76 222 2.0 2.0 0.00 0.00 0.00 60 1017.0
20240611162911 76 208 2.0 2.0 0.00 0.00 0.00 62 1017.0
20240611162410 77 201 3.0 3.0 0.00 0.00 0.00 64 1017.0
20240611161909 78 204 3.0 3.0 0.00 0.00 0.00 59 1017.2
20240611161409 78 169 3.0 5.0 0.00 0.00 0.00 62 1017.2
20240611160907 78 185 4.0 5.0 0.00 0.00 0.00 65 1017.1
20240611160406 77 180 3.0 5.0 0.00 0.00 0.00 65 1017.2
20240611155904 77 176 5.0 6.0 0.00 0.00 0.00 62 1017.0
20240611155404 77 171 5.0 7.0 0.00 0.00 0.00 59 1017.3
20240611154903 77 196 3.0 3.0 0.00 0.00 0.00 65 1017.3